createdAt,value
2019-01-11T06:15:01.824Z,967.18
2019-01-11T06:15:42.341Z,967.18
2019-01-11T06:16:22.872Z,967.21
2019-01-11T06:17:03.397Z,967.16
2019-01-11T06:43:57.350Z,967.24
2019-01-11T06:44:38.974Z,967.21
2019-01-11T06:45:18.405Z,967.23
2019-01-11T06:45:58.925Z,967.2
2019-01-11T06:46:39.451Z,967.22
2019-01-11T06:47:19.976Z,967.22
2019-01-11T06:48:00.500Z,967.23
2019-01-11T06:48:41.025Z,967.18
2019-01-11T06:49:21.550Z,967.21
2019-01-11T06:50:02.068Z,967.18
2019-01-11T06:50:42.588Z,967.18
2019-01-11T06:51:23.118Z,967.13
2019-01-11T06:52:03.644Z,967.15
2019-01-11T06:52:44.169Z,967.13
2019-01-11T06:53:24.755Z,967.14
2019-01-11T06:54:05.276Z,967.19
2019-01-11T06:54:45.799Z,967.19
2019-01-11T06:55:26.323Z,967.24
2019-01-11T06:56:06.837Z,967.26
2019-01-11T06:56:47.351Z,967.22
2019-01-11T06:57:27.870Z,967.24
2019-01-11T06:58:09.335Z,967.25
2019-01-11T06:58:48.920Z,967.26
2019-01-11T06:59:29.440Z,967.29
2019-01-11T07:00:09.960Z,967.24
2019-01-11T07:00:50.491Z,967.2
2019-01-11T07:01:31.010Z,967.22
2019-01-11T07:02:11.541Z,967.23
2019-01-11T07:02:52.064Z,967.24
2019-01-11T07:03:32.587Z,967.23
2019-01-11T07:04:13.113Z,967.23
2019-01-11T07:04:53.631Z,967.26
2019-01-11T07:05:34.160Z,967.23
2019-01-11T07:06:14.681Z,967.23
2019-01-11T07:06:55.198Z,967.22
2019-01-11T07:07:35.731Z,967.27
2019-01-11T07:08:16.245Z,967.25
2019-01-11T07:08:56.771Z,967.27
2019-01-11T07:09:37.303Z,967.27
2019-01-11T07:10:17.826Z,967.27
2019-01-11T07:10:58.355Z,967.27
2019-01-11T07:11:38.877Z,967.31
2019-01-11T07:12:19.397Z,967.3
2019-01-11T07:12:59.923Z,967.3
2019-01-11T07:13:40.437Z,967.32
2019-01-11T07:14:20.960Z,967.29
2019-01-11T07:15:01.478Z,967.33
2019-01-11T07:15:42.002Z,967.35
2019-01-11T07:16:22.523Z,967.34
2019-01-11T07:17:03.061Z,967.34
2019-01-11T07:17:43.797Z,967.37
2019-01-11T07:18:24.394Z,967.33
2019-01-11T07:19:04.913Z,967.36
2019-01-11T07:19:45.486Z,967.35
2019-01-11T07:20:26.099Z,967.36
2019-01-11T07:21:06.618Z,967.38
2019-01-11T07:21:47.146Z,967.35
2019-01-11T07:22:27.670Z,967.36
2019-01-11T07:23:08.193Z,967.37
2019-01-11T07:23:48.714Z,967.36
2019-01-11T07:24:29.228Z,967.35
2019-01-11T07:25:09.755Z,967.36
2019-01-11T07:25:50.284Z,967.34
2019-01-11T07:26:30.795Z,967.34
2019-01-11T07:27:11.317Z,967.35
2019-01-11T07:27:51.839Z,967.37
2019-01-11T07:28:32.359Z,967.34
2019-01-11T07:29:12.883Z,967.35
2019-01-11T07:29:53.407Z,967.32
2019-01-11T07:30:33.925Z,967.37
2019-01-11T07:31:14.443Z,967.34
2019-01-11T07:31:54.962Z,967.32
2019-01-11T07:32:35.482Z,967.33
2019-01-11T07:33:16.012Z,967.31
2019-01-11T07:33:56.531Z,967.37
2019-01-11T07:34:37.060Z,967.34
2019-01-11T07:35:17.584Z,967.33
2019-01-11T07:35:58.110Z,967.31
2019-01-11T07:36:38.633Z,967.29
2019-01-11T07:37:19.152Z,967.35
2019-01-11T07:37:59.677Z,967.31
2019-01-11T07:38:40.212Z,967.33
2019-01-11T07:39:20.725Z,967.3
2019-01-11T07:40:01.239Z,967.34
2019-01-11T07:40:41.765Z,967.35
2019-01-11T07:41:22.291Z,967.35
2019-01-11T07:42:02.806Z,967.34
2019-01-11T07:42:43.327Z,967.33
2019-01-11T07:43:23.844Z,967.34
2019-01-11T07:44:04.363Z,967.38
2019-01-11T07:44:44.885Z,967.35
2019-01-11T07:45:25.411Z,967.37
2019-01-11T07:46:05.934Z,967.34
2019-01-11T07:46:46.456Z,967.37
2019-01-11T07:47:26.989Z,967.38
2019-01-11T07:48:07.517Z,967.39
2019-01-11T07:48:48.039Z,967.29
2019-01-11T07:49:28.559Z,967.31
2019-01-11T07:50:09.073Z,967.3
2019-01-11T07:50:49.598Z,967.3
2019-01-11T07:51:30.116Z,967.29
2019-01-11T07:52:10.642Z,967.28
2019-01-11T07:52:51.164Z,967.29
2019-01-11T07:53:31.685Z,967.31
2019-01-11T07:54:12.205Z,967.3
2019-01-11T07:54:52.724Z,967.24
2019-01-11T07:55:33.251Z,967.27
2019-01-11T07:56:13.772Z,967.25
2019-01-11T07:56:54.299Z,967.23
2019-01-11T07:57:34.816Z,967.25
2019-01-11T07:58:15.345Z,967.26
2019-01-11T07:58:55.866Z,967.22
2019-01-11T07:59:36.397Z,967.22
2019-01-11T08:00:16.922Z,967.24
2019-01-11T08:00:57.443Z,967.21
2019-01-11T08:01:37.971Z,967.21
2019-01-11T08:02:18.492Z,967.21
2019-01-11T08:02:59.021Z,967.22
2019-01-11T08:03:39.543Z,967.19
2019-01-11T08:04:20.068Z,967.2
2019-01-11T08:05:00.590Z,967.16
2019-01-11T08:05:41.113Z,967.2
2019-01-11T08:06:21.638Z,967.2
2019-01-11T08:07:02.171Z,967.24
2019-01-11T08:07:42.686Z,967.23
2019-01-11T08:08:23.218Z,967.29
2019-01-11T08:09:03.733Z,967.25
2019-01-11T08:09:44.262Z,967.26
2019-01-11T08:10:24.787Z,967.27
2019-01-11T08:11:05.312Z,967.29
2019-01-11T08:11:45.833Z,967.24
2019-01-11T08:12:26.354Z,967.3
2019-01-11T08:13:06.879Z,967.32
2019-01-11T08:13:47.400Z,967.34
2019-01-11T08:14:27.925Z,967.34
2019-01-11T08:15:08.438Z,967.29
2019-01-11T08:15:48.952Z,967.36
2019-01-11T08:16:29.470Z,967.3
2019-01-11T08:17:09.991Z,967.32
2019-01-11T08:17:50.519Z,967.27
2019-01-11T08:18:31.047Z,967.29
2019-01-11T08:19:11.590Z,967.33
2019-01-11T08:19:52.122Z,967.33
2019-01-11T08:20:32.690Z,967.33
2019-01-11T08:21:13.178Z,967.36
2019-01-11T08:21:53.693Z,967.34
2019-01-11T08:22:34.217Z,967.3
2019-01-11T08:23:14.735Z,967.33
2019-01-11T08:23:55.263Z,967.32
2019-01-11T08:24:35.781Z,967.3
2019-01-11T08:25:16.301Z,967.35
2019-01-11T08:25:56.825Z,967.33
2019-01-11T08:26:37.347Z,967.36
2019-01-11T08:27:17.866Z,967.39
2019-01-11T08:27:58.388Z,967.37
2019-01-11T08:28:38.908Z,967.34
2019-01-11T08:29:19.436Z,967.33
2019-01-11T08:29:59.965Z,967.3
2019-01-11T08:30:40.486Z,967.32
2019-01-11T08:31:21.014Z,967.36
2019-01-11T08:32:01.526Z,967.34
2019-01-11T08:32:42.048Z,967.37
2019-01-11T08:33:22.574Z,967.36
2019-01-11T08:34:03.100Z,967.42
2019-01-11T08:34:43.620Z,967.42
2019-01-11T08:35:24.143Z,967.36
2019-01-11T08:36:04.676Z,967.34
2019-01-11T08:36:45.197Z,967.38
2019-01-11T08:37:25.717Z,967.37
2019-01-11T08:38:06.247Z,967.39
2019-01-11T08:38:46.784Z,967.39
2019-01-11T08:39:32.339Z,967.37
2019-01-11T08:40:07.822Z,967.4
2019-01-11T08:40:48.345Z,967.4
2019-01-11T08:41:28.871Z,967.36
2019-01-11T08:42:09.389Z,967.38
2019-01-11T08:42:49.915Z,967.4
2019-01-11T08:43:30.439Z,967.4
2019-01-11T08:44:10.968Z,967.39
2019-01-11T08:44:51.481Z,967.39
2019-01-11T08:45:32.007Z,967.43
2019-01-11T08:46:12.530Z,967.39
2019-01-11T08:46:53.048Z,967.46
2019-01-11T08:47:33.567Z,967.43
2019-01-11T08:48:14.093Z,967.47
2019-01-11T08:48:54.620Z,967.46
2019-01-11T08:49:35.142Z,967.48
2019-01-11T08:50:15.661Z,967.48
2019-01-11T08:51:02.445Z,967.45
2019-01-11T08:51:36.717Z,967.48
2019-01-11T08:52:17.238Z,967.43
2019-01-11T08:52:57.762Z,967.41
2019-01-11T08:53:38.279Z,967.4
2019-01-11T08:54:18.803Z,967.39
2019-01-11T08:54:59.327Z,967.4
2019-01-11T08:55:39.848Z,967.42
2019-01-11T08:56:20.370Z,967.41
2019-01-11T08:57:00.891Z,967.45
2019-01-11T08:57:41.409Z,967.5
2019-01-11T08:58:21.936Z,967.47
2019-01-11T08:59:02.459Z,967.52
2019-01-11T08:59:42.992Z,967.47
2019-01-11T09:00:23.508Z,967.46
2019-01-11T09:01:04.027Z,967.48
2019-01-11T09:01:44.544Z,967.45
2019-01-11T09:02:25.070Z,967.43
2019-01-11T09:03:05.600Z,967.41
2019-01-11T09:03:46.122Z,967.41
2019-01-11T09:04:27.812Z,967.39
2019-01-11T09:05:07.174Z,967.42
2019-01-11T09:05:47.699Z,967.42
2019-01-11T09:06:28.218Z,967.46
2019-01-11T09:07:08.742Z,967.49
2019-01-11T09:07:49.252Z,967.45
2019-01-11T09:08:29.778Z,967.46
2019-01-11T09:09:10.300Z,967.47
2019-01-11T09:09:50.825Z,967.48
2019-01-11T09:10:31.348Z,967.51
2019-01-11T09:11:11.869Z,967.52
2019-01-11T09:11:52.389Z,967.44
2019-01-11T09:12:32.917Z,967.48
2019-01-11T09:13:13.438Z,967.42
2019-01-11T09:13:53.959Z,967.46
2019-01-11T09:14:34.480Z,967.43
2019-01-11T09:15:15.021Z,967.47
2019-01-11T09:15:55.539Z,967.42
2019-01-11T09:16:36.051Z,967.5
2019-01-11T09:17:16.587Z,967.44
2019-01-11T09:17:57.104Z,967.49
2019-01-11T09:18:37.626Z,967.46
2019-01-11T09:19:18.147Z,967.43
2019-01-11T09:19:58.662Z,967.46
2019-01-11T09:20:39.185Z,967.44
2019-01-11T09:21:19.702Z,967.46
2019-01-11T09:22:00.224Z,967.45
2019-01-11T09:22:40.742Z,967.48
2019-01-11T09:23:21.276Z,967.49
2019-01-11T09:24:01.795Z,967.47
2019-01-11T09:24:42.314Z,967.48
2019-01-11T09:25:22.842Z,967.48
2019-01-11T09:26:03.364Z,967.53
2019-01-11T09:26:43.883Z,967.49
2019-01-11T09:27:24.406Z,967.48
2019-01-11T09:28:04.918Z,967.51
2019-01-11T09:28:45.452Z,967.52
2019-01-11T09:29:25.973Z,967.53
2019-01-11T09:30:06.497Z,967.43
2019-01-11T09:30:47.024Z,967.52
2019-01-11T09:31:27.557Z,967.49
2019-01-11T09:32:08.079Z,967.52
2019-01-11T09:32:48.602Z,967.53
2019-01-11T09:33:29.136Z,967.5
2019-01-11T09:34:09.650Z,967.51
2019-01-11T09:34:50.179Z,967.51
2019-01-11T09:35:30.695Z,967.56
2019-01-11T09:36:11.222Z,967.56
2019-01-11T09:36:51.767Z,967.53
2019-01-11T09:37:32.274Z,967.5
2019-01-11T09:38:12.894Z,967.51
2019-01-11T09:38:53.374Z,967.46
2019-01-11T09:39:33.851Z,967.5
2019-01-11T09:40:14.378Z,967.47
2019-01-11T09:40:54.929Z,967.52
2019-01-11T09:41:35.458Z,967.51
2019-01-11T09:42:16.382Z,967.51
2019-01-11T09:42:57.716Z,967.57
2019-01-11T09:43:38.770Z,967.56
2019-01-11T09:44:19.298Z,967.54
2019-01-11T09:44:59.825Z,967.54
2019-01-11T09:45:40.356Z,967.55
2019-01-11T09:46:20.870Z,967.56
2019-01-11T09:47:01.407Z,967.54
2019-01-11T09:47:41.924Z,967.53
2019-01-11T09:48:22.446Z,967.51
2019-01-11T09:49:02.970Z,967.55
2019-01-11T09:49:43.497Z,967.49
2019-01-11T09:50:24.016Z,967.53
2019-01-11T09:51:04.536Z,967.55
2019-01-11T09:51:45.053Z,967.57
2019-01-11T09:52:25.585Z,967.56
2019-01-11T09:53:06.111Z,967.52
2019-01-11T09:53:46.639Z,967.49
2019-01-11T09:54:27.156Z,967.52
2019-01-11T09:55:07.685Z,967.52
2019-01-11T09:55:48.215Z,967.54
2019-01-11T09:56:28.739Z,967.48
2019-01-11T09:57:09.389Z,967.47
2019-01-11T09:57:49.905Z,967.48
2019-01-11T09:58:30.441Z,967.45
2019-01-11T09:59:10.971Z,967.44
2019-01-11T09:59:51.496Z,967.44
2019-01-11T10:00:32.024Z,967.47
2019-01-11T10:01:12.577Z,967.48
2019-01-11T10:01:53.108Z,967.46
2019-01-11T10:02:33.706Z,967.47
2019-01-11T10:03:14.193Z,967.45
2019-01-11T10:03:54.717Z,967.49
2019-01-11T10:04:35.243Z,967.49
2019-01-11T10:05:15.768Z,967.49
2019-01-11T10:05:56.406Z,967.47
2019-01-11T10:06:37.019Z,967.46
2019-01-11T10:07:17.656Z,967.46
2019-01-11T10:07:58.172Z,967.51
2019-01-11T10:08:38.696Z,967.46
2019-01-11T10:09:19.218Z,967.47
2019-01-11T10:09:59.742Z,967.46
2019-01-11T10:10:40.259Z,967.45
2019-01-11T10:11:20.785Z,967.43
2019-01-11T10:12:01.317Z,967.46
2019-01-11T10:12:41.844Z,967.42
2019-01-11T10:13:22.369Z,967.41
2019-01-11T10:14:02.924Z,967.43
2019-01-11T10:14:43.445Z,967.4
2019-01-11T10:15:23.969Z,967.43
2019-01-11T10:16:04.498Z,967.4
2019-01-11T10:16:45.021Z,967.43
2019-01-11T10:17:25.548Z,967.38
2019-01-11T10:18:06.063Z,967.43
2019-01-11T10:18:46.644Z,967.39
2019-01-11T10:19:27.166Z,967.44
2019-01-11T10:20:07.689Z,967.39
2019-01-11T10:20:48.217Z,967.39
2019-01-11T10:21:28.740Z,967.37
2019-01-11T10:22:09.271Z,967.34
2019-01-11T10:22:49.790Z,967.39
2019-01-11T10:23:30.315Z,967.38
2019-01-11T10:24:10.839Z,967.34
2019-01-11T10:24:51.361Z,967.36
2019-01-11T10:25:31.878Z,967.34
2019-01-11T10:26:12.397Z,967.35
2019-01-11T10:26:52.926Z,967.33
2019-01-11T10:27:33.453Z,967.32
2019-01-11T10:28:13.978Z,967.32
2019-01-11T10:28:54.526Z,967.39
2019-01-11T10:29:35.168Z,967.34
2019-01-11T10:30:15.756Z,967.36
2019-01-11T10:31:00.633Z,967.37
2019-01-11T10:31:36.828Z,967.35
2019-01-11T10:32:17.378Z,967.33
2019-01-11T10:32:57.904Z,967.32
2019-01-11T10:33:38.432Z,967.33
2019-01-11T10:34:18.957Z,967.33
2019-01-11T10:34:59.484Z,967.36
2019-01-11T10:35:40.011Z,967.39
2019-01-11T10:36:20.536Z,967.35
2019-01-11T10:37:01.074Z,967.36
2019-01-11T10:37:41.615Z,967.37
2019-01-11T10:38:22.136Z,967.37
2019-01-11T10:39:02.659Z,967.29
2019-01-11T10:39:43.184Z,967.33
2019-01-11T10:40:23.787Z,967.3
2019-01-11T10:41:04.311Z,967.34
2019-01-11T10:41:44.842Z,967.34
2019-01-11T10:42:25.354Z,967.31
2019-01-11T10:43:05.884Z,967.31
2019-01-11T10:43:46.413Z,967.33
2019-01-11T10:44:26.922Z,967.32
2019-01-11T10:45:07.444Z,967.31
2019-01-11T10:45:47.971Z,967.31
2019-01-11T10:46:28.484Z,967.32
2019-01-11T10:47:09.010Z,967.32
2019-01-11T10:47:49.554Z,967.31
2019-01-11T10:48:30.077Z,967.26
2019-01-11T10:49:10.601Z,967.23
2019-01-11T10:49:51.242Z,967.25
2019-01-11T10:50:31.811Z,967.2
2019-01-11T10:51:12.320Z,967.21
2019-01-11T10:51:52.835Z,967.18
2019-01-11T10:52:33.355Z,967.2
2019-01-11T10:53:13.881Z,967.18
2019-01-11T10:53:54.434Z,967.18
2019-01-11T10:54:34.958Z,967.2
2019-01-11T10:55:15.470Z,967.18
2019-01-11T10:55:56.008Z,967.16
2019-01-11T10:56:36.518Z,967.15
2019-01-11T10:57:17.045Z,967.14
2019-01-11T10:57:57.577Z,967.14
2019-01-11T10:58:38.093Z,967.15
2019-01-11T10:59:18.613Z,967.09
2019-01-11T10:59:59.129Z,967.05
2019-01-11T11:00:39.652Z,967.04
2019-01-11T11:01:20.175Z,967.05
2019-01-11T11:02:00.706Z,967.06
2019-01-11T11:02:41.249Z,967.05
2019-01-11T11:03:21.771Z,967.12
2019-01-11T11:04:02.299Z,967.04
2019-01-11T11:04:42.821Z,967.07
2019-01-11T11:05:23.345Z,967.06
2019-01-11T11:06:03.872Z,967.08
2019-01-11T11:06:44.401Z,967.08
2019-01-11T11:07:24.923Z,967.1
2019-01-11T11:08:05.458Z,967.11
2019-01-11T11:08:45.982Z,967.12
2019-01-11T11:09:26.507Z,967.16
2019-01-11T11:10:07.022Z,967.13
2019-01-11T11:10:47.562Z,967.12
2019-01-11T11:11:28.089Z,967.13
2019-01-11T11:12:08.710Z,967.11
2019-01-11T11:12:49.242Z,967.15
2019-01-11T11:13:29.757Z,967.09
2019-01-11T11:14:10.279Z,967.05
2019-01-11T11:14:50.791Z,967.08
2019-01-11T11:15:31.314Z,967.02
2019-01-11T11:16:11.853Z,967.02
2019-01-11T11:16:52.390Z,967.05
2019-01-11T11:17:32.951Z,967.03
2019-01-11T11:18:13.506Z,967.02
2019-01-11T11:18:54.063Z,967.04
2019-01-11T11:19:34.605Z,967.03
2019-01-11T11:20:15.288Z,967
2019-01-11T11:20:55.871Z,967.01
2019-01-11T11:21:36.406Z,966.98
2019-01-11T11:22:16.967Z,967.02
2019-01-11T11:22:57.544Z,967.04
2019-01-11T11:23:38.703Z,967
2019-01-11T11:24:19.364Z,967.02
2019-01-11T11:24:59.897Z,967.02
2019-01-11T11:25:40.424Z,966.97
2019-01-11T11:26:20.948Z,966.98
2019-01-11T11:27:01.473Z,966.96
2019-01-11T11:27:41.995Z,966.95
2019-01-11T11:28:22.521Z,966.97
2019-01-11T11:29:03.045Z,966.96
2019-01-11T11:29:43.577Z,966.94
2019-01-11T11:30:24.099Z,966.96
2019-01-11T11:31:04.620Z,966.94
2019-01-11T11:31:45.139Z,966.92
2019-01-11T11:32:25.660Z,966.93
2019-01-11T11:33:06.188Z,966.91
2019-01-11T11:33:46.718Z,966.89
2019-01-11T11:34:27.241Z,966.9
2019-01-11T11:35:07.763Z,966.89
2019-01-11T11:35:48.288Z,966.93
2019-01-11T11:36:28.816Z,966.91
2019-01-11T11:37:09.335Z,966.9
2019-01-11T11:37:49.862Z,966.92
2019-01-11T11:38:30.388Z,966.92
2019-01-11T11:39:10.913Z,966.88
2019-01-11T11:39:51.438Z,966.87
2019-01-11T11:40:31.964Z,966.9
2019-01-11T11:41:12.476Z,966.84
2019-01-11T11:41:52.991Z,966.88
2019-01-11T11:42:33.515Z,966.87
2019-01-11T11:43:14.044Z,966.88
2019-01-11T11:43:54.557Z,966.84
2019-01-11T11:44:35.078Z,966.9
2019-01-11T11:45:15.604Z,966.89
2019-01-11T11:45:56.128Z,966.87
2019-01-11T11:46:36.654Z,966.9
2019-01-11T11:47:17.171Z,966.92
2019-01-11T11:47:57.692Z,966.86
2019-01-11T11:48:38.225Z,966.88
2019-01-11T11:49:18.845Z,966.92
2019-01-11T11:49:59.367Z,966.91
2019-01-11T11:50:39.891Z,966.86
2019-01-11T11:51:20.410Z,966.88
2019-01-11T11:52:00.936Z,966.95
2019-01-11T11:52:41.487Z,966.89
2019-01-11T11:53:22.024Z,966.88
2019-01-11T11:54:02.586Z,966.85
2019-01-11T11:54:43.113Z,966.89
2019-01-11T11:55:23.637Z,966.86
2019-01-11T11:56:04.159Z,966.86
2019-01-11T11:56:44.691Z,966.87
2019-01-11T11:57:25.215Z,966.91
2019-01-11T11:58:05.734Z,966.86
2019-01-11T11:58:52.819Z,966.83
2019-01-11T11:59:33.336Z,966.85
2019-01-11T12:00:13.861Z,966.84
2019-01-11T12:00:54.385Z,966.82
2019-01-11T12:01:34.919Z,966.83
2019-01-11T12:02:19.266Z,966.82
2019-01-11T12:02:55.969Z,966.81
2019-01-11T12:03:36.492Z,966.83
2019-01-11T12:04:17.015Z,966.82
2019-01-11T12:04:57.538Z,966.8
2019-01-11T12:05:38.059Z,966.75
2019-01-11T12:06:18.586Z,966.76
2019-01-11T12:06:59.118Z,966.75
2019-01-11T12:07:39.641Z,966.72
2019-01-11T12:08:20.164Z,966.76
2019-01-11T12:09:00.690Z,966.72
2019-01-11T12:09:41.208Z,966.76
2019-01-11T12:10:21.733Z,966.69
2019-01-11T12:11:02.269Z,966.66
2019-01-11T12:11:42.793Z,966.69
2019-01-11T12:12:23.332Z,966.67
2019-01-11T12:13:03.859Z,966.66
2019-01-11T12:13:44.391Z,966.66
2019-01-11T12:14:24.922Z,966.67
2019-01-11T12:15:05.440Z,966.65
2019-01-11T12:15:45.972Z,966.66
2019-01-11T12:16:26.494Z,966.61
2019-01-11T12:17:07.018Z,966.63
2019-01-11T12:17:47.562Z,966.65
2019-01-11T12:18:28.104Z,966.61
2019-01-11T12:19:08.626Z,966.65
2019-01-11T12:19:49.154Z,966.61
2019-01-11T12:20:29.680Z,966.65
2019-01-11T12:21:10.199Z,966.6
2019-01-11T12:21:50.725Z,966.61
2019-01-11T12:22:31.251Z,966.62
2019-01-11T12:23:11.793Z,966.6
2019-01-11T12:23:52.324Z,966.59
2019-01-11T12:24:32.849Z,966.56
2019-01-11T12:25:13.375Z,966.52
2019-01-11T12:25:53.897Z,966.58
2019-01-11T12:26:34.429Z,966.56
2019-01-11T12:27:14.951Z,966.52
2019-01-11T12:27:55.472Z,966.47
2019-01-11T12:28:35.990Z,966.5
2019-01-11T12:29:16.519Z,966.45
2019-01-11T12:29:57.048Z,966.49
2019-01-11T12:30:37.574Z,966.44
2019-01-11T12:31:18.101Z,966.5
2019-01-11T12:31:58.620Z,966.43
2019-01-11T12:32:39.145Z,966.49
2019-01-11T12:33:19.675Z,966.48
2019-01-11T12:34:00.193Z,966.5
2019-01-11T12:34:40.723Z,966.46
2019-01-11T12:35:21.248Z,966.43
2019-01-11T12:36:01.776Z,966.44
2019-01-11T12:36:42.296Z,966.43
2019-01-11T12:37:22.823Z,966.44
2019-01-11T12:38:03.349Z,966.41
2019-01-11T12:38:43.869Z,966.42
2019-01-11T12:39:24.400Z,966.37
2019-01-11T12:40:04.928Z,966.4
2019-01-11T12:40:45.449Z,966.45
2019-01-11T12:41:25.973Z,966.45
2019-01-11T12:42:06.504Z,966.42
2019-01-11T12:42:47.028Z,966.42
2019-01-11T12:43:27.551Z,966.45
2019-01-11T12:44:08.079Z,966.47
2019-01-11T12:44:48.604Z,966.46
2019-01-11T12:45:29.135Z,966.43
2019-01-11T12:46:09.660Z,966.41
2019-01-11T12:46:50.186Z,966.41
2019-01-11T12:47:30.712Z,966.43
2019-01-11T12:48:11.231Z,966.41
2019-01-11T12:48:51.751Z,966.37
2019-01-11T12:49:32.293Z,966.43
2019-01-11T12:50:12.824Z,966.4
2019-01-11T12:50:53.339Z,966.41
2019-01-11T12:51:33.864Z,966.4
2019-01-11T12:52:14.387Z,966.38
2019-01-11T12:52:54.913Z,966.37
2019-01-11T12:53:35.435Z,966.35
2019-01-11T12:54:15.965Z,966.33
2019-01-11T12:54:56.497Z,966.35
2019-01-11T12:55:37.021Z,966.33
2019-01-11T12:56:17.543Z,966.36
2019-01-11T12:56:59.283Z,966.36
2019-01-11T12:57:39.815Z,966.33
2019-01-11T12:58:20.351Z,966.34
2019-01-11T12:59:00.887Z,966.29
2019-01-11T12:59:41.406Z,966.3
2019-01-11T13:00:21.931Z,966.29
2019-01-11T13:01:02.453Z,966.27
2019-01-11T13:01:42.965Z,966.28
2019-01-11T13:02:23.505Z,966.27
2019-01-11T13:03:04.023Z,966.26
2019-01-11T13:03:44.561Z,966.25
2019-01-11T13:04:25.096Z,966.23
2019-01-11T13:05:05.606Z,966.24
2019-01-11T13:05:46.141Z,966.22
2019-01-11T13:06:26.669Z,966.24
2019-01-11T13:07:07.193Z,966.24
2019-01-11T13:07:47.731Z,966.21
2019-01-11T13:08:28.261Z,966.23
2019-01-11T13:09:08.791Z,966.18
2019-01-11T13:09:49.313Z,966.14
2019-01-11T13:10:29.848Z,966.18
2019-01-11T13:11:10.386Z,966.16
2019-01-11T13:11:50.915Z,966.13
2019-01-11T13:12:31.447Z,966.13
2019-01-11T13:13:11.974Z,966.12
2019-01-11T13:13:52.519Z,966.14
2019-01-11T13:14:33.045Z,966.13
2019-01-11T13:15:13.570Z,966.15
2019-01-11T13:15:54.107Z,966.09
2019-01-11T13:16:34.644Z,966.1
2019-01-11T13:17:15.155Z,966.09
2019-01-11T13:17:55.685Z,966.03
2019-01-11T13:18:36.214Z,966.08
2019-01-11T13:19:16.741Z,966.07
2019-01-11T13:19:57.264Z,966.08
2019-01-11T13:20:37.802Z,966.07
2019-01-11T13:21:18.312Z,966.04
2019-01-11T13:22:00.592Z,966.07
2019-01-11T13:22:39.390Z,966.07
2019-01-11T13:23:19.917Z,966.1
2019-01-11T13:24:00.449Z,966.1
2019-01-11T13:24:40.969Z,966.09
2019-01-11T13:25:21.502Z,966.12
2019-01-11T13:26:02.032Z,966.12
2019-01-11T13:26:42.564Z,966.12
2019-01-11T13:27:23.090Z,966.14
2019-01-11T13:28:03.629Z,966.14
2019-01-11T13:28:44.169Z,966.16
2019-01-11T13:29:24.716Z,966.11
2019-01-11T13:30:05.249Z,966.12
2019-01-11T13:30:45.777Z,966.15
2019-01-11T13:31:26.297Z,966.12
2019-01-11T13:32:06.825Z,966.11
2019-01-11T13:32:47.355Z,966.16
2019-01-11T13:33:27.897Z,966.12
2019-01-11T13:34:08.425Z,966.14
2019-01-11T13:34:48.951Z,966.13
2019-01-11T13:35:29.484Z,966.11
2019-01-11T13:36:10.014Z,966.09
2019-01-11T13:36:53.836Z,966.06
2019-01-11T13:37:31.085Z,966.11
2019-01-11T13:38:11.625Z,966.13
2019-01-11T13:38:52.147Z,966.1
2019-01-11T13:39:32.673Z,966.15
2019-01-11T13:40:13.238Z,966.11
2019-01-11T13:40:53.792Z,966.09
2019-01-11T13:41:34.358Z,966.07
2019-01-11T13:42:14.886Z,966.01
2019-01-11T13:42:55.441Z,966.02
2019-01-11T13:43:36.011Z,965.97
2019-01-11T13:44:16.580Z,966.01
2019-01-11T13:44:57.138Z,966.01
2019-01-11T13:45:37.702Z,965.98
2019-01-11T13:46:18.270Z,965.99
2019-01-11T13:46:58.843Z,965.99
2019-01-11T13:47:39.398Z,965.99
2019-01-11T13:48:19.971Z,966
2019-01-11T13:49:00.493Z,965.98
2019-01-11T13:49:41.033Z,966.01
2019-01-11T13:50:21.552Z,965.98
2019-01-11T13:51:02.108Z,966.02
2019-01-11T13:51:42.664Z,966.02
2019-01-11T13:52:23.188Z,965.99
2019-01-11T13:53:03.720Z,966.05
2019-01-11T13:53:44.253Z,965.99
2019-01-11T13:54:24.786Z,966.01
2019-01-11T13:55:05.326Z,966.05
2019-01-11T13:55:45.882Z,966.03
2019-01-11T13:56:26.415Z,966.02
2019-01-11T13:57:06.961Z,966.02
2019-01-11T13:57:47.485Z,965.97
2019-01-11T13:58:28.037Z,965.98
2019-01-11T13:59:08.560Z,966
2019-01-11T13:59:49.098Z,965.95
2019-01-11T14:00:29.640Z,965.97
2019-01-11T14:01:10.177Z,965.96
2019-01-11T14:01:50.712Z,965.95
2019-01-11T14:02:31.261Z,966.05
2019-01-11T14:03:11.816Z,966.01
2019-01-11T14:03:52.339Z,966.02
2019-01-11T14:04:32.886Z,966.02
2019-01-11T14:05:13.430Z,966.04
2019-01-11T14:05:53.959Z,966.09
2019-01-11T14:06:34.488Z,966.1
2019-01-11T14:07:15.019Z,966.1
2019-01-11T14:07:55.537Z,966.07
2019-01-11T14:08:36.109Z,966.05
2019-01-11T14:09:16.670Z,966.03
2019-01-11T14:09:57.192Z,966.02
2019-01-11T14:10:37.732Z,966.01
2019-01-11T14:11:18.257Z,965.97
2019-01-11T14:11:58.786Z,965.92
2019-01-11T14:12:39.325Z,965.99
2019-01-11T14:13:19.857Z,965.99
2019-01-11T14:14:00.392Z,965.98
2019-01-11T14:14:40.915Z,965.98
2019-01-11T14:15:21.455Z,965.95
2019-01-11T14:16:02.024Z,965.94
2019-01-11T14:19:16.044Z,965.97
2019-01-11T14:19:56.576Z,965.94
2019-01-11T14:20:37.153Z,965.93
2019-01-11T14:21:17.786Z,965.96
2019-01-11T14:21:58.328Z,965.93
2019-01-11T14:22:38.901Z,965.93
2019-01-11T14:23:19.434Z,965.98
2019-01-11T14:23:59.956Z,965.95
2019-01-11T14:24:40.492Z,965.94
2019-01-11T14:25:21.032Z,965.99
2019-01-11T14:26:01.592Z,965.96
2019-01-11T14:26:42.119Z,965.9
2019-01-11T14:27:22.655Z,965.96
2019-01-11T14:28:03.187Z,965.94
2019-01-11T14:28:43.706Z,965.95
2019-01-11T14:29:24.241Z,965.97
2019-01-11T14:30:04.764Z,965.95
2019-01-11T14:30:45.319Z,965.94
2019-01-11T14:31:25.852Z,965.92
2019-01-11T14:32:06.385Z,965.89
2019-01-11T14:32:46.918Z,965.9
2019-01-11T14:33:27.439Z,965.83
2019-01-11T14:34:07.974Z,965.84
2019-01-11T14:34:48.502Z,965.81
2019-01-11T14:35:29.026Z,965.83
2019-01-11T14:36:09.543Z,965.84
2019-01-11T14:36:50.075Z,965.82
2019-01-11T14:37:32.318Z,965.8
2019-01-11T14:38:11.145Z,965.78
2019-01-11T14:38:51.675Z,965.85
2019-01-11T14:39:32.205Z,965.82
2019-01-11T14:40:12.716Z,965.82
2019-01-11T14:40:53.282Z,965.79
2019-01-11T14:41:33.831Z,965.85
2019-01-11T14:42:14.352Z,965.77
2019-01-11T14:42:54.901Z,965.81
2019-01-11T14:43:35.418Z,965.85
2019-01-11T14:44:15.944Z,965.77
2019-01-11T14:44:56.467Z,965.81
2019-01-11T14:45:37.014Z,965.81
2019-01-11T14:46:17.550Z,965.84
2019-01-11T14:46:58.135Z,965.87
2019-01-11T14:47:38.740Z,965.85
2019-01-11T14:48:19.536Z,965.78
2019-01-11T14:49:00.397Z,965.73
2019-01-11T14:49:41.609Z,965.81
2019-01-11T14:50:22.581Z,965.78
2019-01-11T14:51:03.717Z,965.81
2019-01-11T14:51:44.629Z,965.71
2019-01-11T14:52:25.927Z,965.75
2019-01-11T14:53:07.149Z,965.74
2019-01-11T14:53:47.760Z,965.75
2019-01-11T14:54:28.385Z,965.77
2019-01-11T14:55:08.978Z,965.72
2019-01-11T14:55:56.017Z,965.8
2019-01-11T14:56:30.246Z,965.75
2019-01-11T14:57:10.846Z,965.73
2019-01-11T14:57:51.373Z,965.75
2019-01-11T14:58:31.902Z,965.75
2019-01-11T14:59:12.425Z,965.76
2019-01-11T14:59:52.952Z,965.84
2019-01-11T15:00:33.472Z,965.8
2019-01-11T15:01:13.994Z,965.79
2019-01-11T15:01:54.518Z,965.72
2019-01-11T15:02:35.032Z,965.77
2019-01-11T15:03:15.553Z,965.79
2019-01-11T15:03:56.076Z,965.77
2019-01-11T15:04:36.596Z,965.79
2019-01-11T15:05:17.125Z,965.77
2019-01-11T15:05:57.649Z,965.79
2019-01-11T15:06:38.430Z,965.83
2019-01-11T15:07:18.947Z,965.83
2019-01-11T15:07:59.477Z,965.79
2019-01-11T15:08:39.996Z,965.78
2019-01-11T15:09:20.523Z,965.8
2019-01-11T15:10:01.040Z,965.77
2019-01-11T15:10:41.565Z,965.8